Time;durP1;ratioP1;P1;durP2;ratioP2;P2;SDS_P1;SDS_P2;PMS_P1;PMS_P2;Temp;Humidity;BMP_temperature;BMP_pressure;BME280_temperature;BME280_humidity;BME280_pressure;Samples;Min_cycle;Max_cycle;Signal;HPM_P1;HPM_P2
2023/03/23 00:01:30;;;;;;;;;;;13.00;99.90;;;;;;5012355;28;20057;-76
2023/03/23 00:03:57;;;;;;;9.45;6.40;;;13.00;99.90;;;;;;4993456;28;19905;-76
2023/03/23 00:06:25;;;;;;;9.43;6.43;;;13.00;99.90;;;;;;5010947;28;20056;-76
2023/03/23 00:08:59;;;;;;;8.25;5.97;;;13.00;99.90;;;;;;5011668;28;20161;-75
2023/03/23 00:11:28;;;;;;;10.00;6.43;;;13.10;99.90;;;;;;5011732;28;20037;-75
2023/03/23 00:14:05;;;;;;;12.07;6.88;;;13.00;99.90;;;;;;5011290;28;20144;-75
2023/03/23 00:16:33;;;;;;;;;;;12.90;99.90;;;;;;5012436;28;20423;-75
2023/03/23 00:19:04;;;;;;;9.93;6.25;;;12.90;99.90;;;;;;4993108;28;19906;-75
2023/03/23 00:21:35;;;;;;;7.88;6.30;;;12.90;99.90;;;;;;5014388;28;20041;-76
2023/03/23 00:24:06;;;;;;;10.85;6.65;;;12.80;99.90;;;;;;5015031;28;20460;-76
2023/03/23 00:26:36;;;;;;;8.70;5.82;;;12.90;99.90;;;;;;5015380;28;20022;-77
2023/03/23 00:29:06;;;;;;;9.23;6.65;;;12.90;99.90;;;;;;4997748;28;20366;-78
2023/03/23 00:31:39;;;;;;;9.05;6.85;;;12.90;99.90;;;;;;4997644;28;20453;-77
2023/03/23 00:34:06;;;;;;;10.25;6.63;;;12.90;99.90;;;;;;5014609;28;20088;-77
2023/03/23 00:36:35;;;;;;;9.43;6.65;;;12.90;99.90;;;;;;4996963;28;20308;-77
2023/03/23 00:39:04;;;;;;;11.88;6.70;;;12.90;99.90;;;;;;5015203;28;20453;-77
2023/03/23 00:41:30;;;;;;;8.95;6.53;;;12.90;99.90;;;;;;5014959;28;20378;-77
2023/03/23 00:44:00;;;;;;;9.57;6.50;;;12.90;99.90;;;;;;5015086;28;20026;-77
2023/03/23 00:46:27;;;;;;;9.75;6.45;;;12.90;99.90;;;;;;5014570;28;20033;-77
2023/03/23 00:48:56;;;;;;;9.55;6.35;;;12.90;99.90;;;;;;5015032;28;20025;-77
2023/03/23 00:51:23;;;;;;;8.75;7.10;;;12.90;99.90;;;;;;5014629;28;20516;-76
2023/03/23 00:53:50;;;;;;;9.57;6.68;;;12.90;99.90;;;;;;5014585;28;20481;-77
2023/03/23 00:56:17;;;;;;;9.13;6.95;;;12.90;99.90;;;;;;5014632;28;20033;-76
2023/03/23 00:58:46;;;;;;;10.55;7.47;;;12.90;99.90;;;;;;5014774;28;20030;-77
2023/03/23 01:01:12;;;;;;;8.68;6.57;;;12.90;99.90;;;;;;5014807;28;20025;-75
2023/03/23 01:03:39;;;;;;;9.55;6.80;;;12.90;99.90;;;;;;5014297;28;20041;-77
2023/03/23 01:06:14;;;;;;;9.03;6.63;;;12.90;99.90;;;;;;5013944;28;20030;-76
2023/03/23 01:08:44;;;;;;;8.85;7.13;;;12.90;99.90;;;;;;5015418;28;20755;-76
2023/03/23 01:11:15;;;;;;;8.68;7.03;;;13.00;99.90;;;;;;5014367;28;20181;-76
2023/03/23 01:13:42;;;;;;;9.55;6.72;;;12.90;99.90;;;;;;5014447;28;20049;-76
2023/03/23 01:16:10;;;;;;;11.88;7.38;;;12.90;99.90;;;;;;5014405;28;20026;-76
2023/03/23 01:18:37;;;;;;;8.75;6.93;;;13.00;99.90;;;;;;4996376;28;20120;-76
2023/03/23 01:21:10;;;;;;;8.75;6.72;;;13.00;99.90;;;;;;5014024;28;20029;-76
2023/03/23 01:23:38;;;;;;;9.63;7.32;;;12.90;99.90;;;;;;5014458;28;20077;-76
2023/03/23 01:26:10;;;;;;;9.57;7.22;;;12.90;99.90;;;;;;4996785;28;20029;-76
2023/03/23 01:28:40;;;;;;;10.57;7.10;;;12.80;99.90;;;;;;5014279;28;20024;-76
2023/03/23 01:31:16;;;;;;;10.77;7.85;;;12.80;99.90;;;;;;4995809;28;20386;-76
2023/03/23 01:33:42;;;;;;;9.60;7.80;;;12.80;99.90;;;;;;5013900;28;20096;-75
2023/03/23 01:36:14;;;;;;;10.80;7.47;;;12.80;99.90;;;;;;5014231;28;20022;-76
2023/03/23 01:38:43;;;;;;;9.43;7.32;;;12.80;99.90;;;;;;5013838;28;20473;-76
2023/03/23 01:41:10;;;;;;;10.80;7.75;;;12.90;99.90;;;;;;4996091;28;20054;-76
2023/03/23 01:43:53;;;;;;;8.38;7.13;;;12.80;99.90;;;;;;5013866;28;20014;-76
2023/03/23 01:46:22;;;;;;;10.20;7.00;;;12.90;99.90;;;;;;5013952;28;20066;-76
2023/03/23 01:48:49;;;;;;;12.43;8.20;;;12.90;99.90;;;;;;5013677;28;20014;-76
2023/03/23 01:51:19;;;;;;;11.60;8.32;;;12.90;99.90;;;;;;5013546;28;20036;-76
2023/03/23 01:53:51;;;;;;;9.23;6.97;;;12.90;99.90;;;;;;5013811;28;20357;-75
2023/03/23 01:56:24;;;;;;;12.65;8.00;;;12.80;99.90;;;;;;5013857;28;20081;-76
2023/03/23 01:58:53;;;;;;;11.15;8.00;;;12.80;99.90;;;;;;5013363;28;20084;-77
2023/03/23 02:01:21;;;;;;;11.15;7.50;;;12.80;99.90;;;;;;5013700;28;20030;-75
2023/03/23 02:03:51;;;;;;;12.40;8.43;;;12.80;99.90;;;;;;4995994;28;20056;-76
2023/03/23 02:06:17;;;;;;;9.65;7.20;;;12.80;99.90;;;;;;5013029;28;20018;-75
2023/03/23 02:08:45;;;;;;;10.70;7.47;;;12.70;99.90;;;;;;4995196;28;20080;-74
2023/03/23 02:11:16;;;;;;;12.23;7.95;;;12.70;99.90;;;;;;5012962;28;20041;-75
2023/03/23 02:13:46;;;;;;;10.18;7.13;;;12.70;99.90;;;;;;5012933;28;20113;-75
2023/03/23 02:16:26;;;;;;;9.73;7.65;;;12.70;99.90;;;;;;5012863;28;20030;-74
2023/03/23 02:19:03;;;;;;;10.93;8.07;;;12.70;99.90;;;;;;5012698;28;20038;-76
2023/03/23 02:22:06;;;;;;;10.25;7.97;;;12.70;99.90;;;;;;4995305;28;20037;-75
2023/03/23 02:25:00;;;;;;;10.18;7.28;;;12.60;99.90;;;;;;4994924;28;20457;-74
2023/03/23 02:28:05;;;;;;;11.93;7.32;;;12.50;99.90;;;;;;4994887;28;20481;-75
2023/03/23 02:30:37;;;;;;;10.32;7.28;;;12.60;99.90;;;;;;5014515;28;20051;-75
2023/03/23 02:33:37;;;;;;;10.07;8.10;;;12.50;99.90;;;;;;4995192;28;20465;-74
2023/03/23 02:36:13;;;;;;;9.43;6.93;;;12.50;99.90;;;;;;5012421;28;20088;-75
2023/03/23 02:39:08;;;;;;;10.13;7.95;;;12.50;99.90;;;;;;4994569;28;20037;-75
2023/03/23 02:41:45;;;;;;;11.00;8.30;;;12.50;99.90;;;;;;4994626;28;20026;-75
2023/03/23 02:44:15;;;;;;;10.43;8.23;;;12.50;99.90;;;;;;5011668;28;20118;-75
2023/03/23 02:46:54;;;;;;;13.45;8.07;;;12.50;99.90;;;;;;5012256;28;20044;-75
2023/03/23 02:49:22;;;;;;;12.50;8.20;;;12.60;99.90;;;;;;5012109;28;20544;-75
2023/03/23 02:51:50;;;;;;;12.63;8.02;;;12.50;99.90;;;;;;5012329;28;20018;-75
2023/03/23 02:54:18;;;;;;;15.75;8.35;;;12.50;99.90;;;;;;5012438;28;20040;-73
2023/03/23 02:56:45;;;;;;;13.40;8.90;;;12.50;99.90;;;;;;5012405;28;20104;-75
2023/03/23 02:59:11;;;;;;;;;;;12.50;99.90;;;;;;5012649;28;20034;-75
2023/03/23 03:01:37;;;;;;;10.10;8.10;;;12.60;99.90;;;;;;4994366;28;19912;-75
2023/03/23 03:04:15;;;;;;;12.10;8.23;;;12.60;99.90;;;;;;5012481;28;20018;-75
2023/03/23 03:07:24;;;;;;;13.18;9.18;;;12.60;99.90;;;;;;4994669;28;20033;-75
2023/03/23 03:10:02;;;;;;;10.98;8.50;;;12.60;99.90;;;;;;4931998;29;20386;-74
2023/03/23 03:12:51;;;;;;;9.65;7.68;;;12.60;99.90;;;;;;4932620;29;20071;-77
2023/03/23 03:15:42;;;;;;;11.80;8.52;;;12.60;99.90;;;;;;4932318;29;20114;-78
2023/03/23 03:18:22;;;;;;;11.55;8.18;;;12.60;99.90;;;;;;4932454;29;20024;-75
2023/03/23 03:20:54;;;;;;;10.85;8.10;;;12.60;99.90;;;;;;4931991;29;20059;-75
2023/03/23 03:23:23;;;;;;;11.27;8.23;;;12.60;99.90;;;;;;4932441;29;20055;-76
2023/03/23 03:25:50;;;;;;;11.35;7.78;;;12.60;99.90;;;;;;4931962;29;20396;-75
2023/03/23 03:28:21;;;;;;;11.73;8.60;;;12.50;99.90;;;;;;4932388;29;20154;-75
2023/03/23 03:30:56;;;;;;;13.07;8.27;;;12.60;99.90;;;;;;4931959;29;20063;-76
2023/03/23 03:33:25;;;;;;;9.90;7.95;;;12.60;99.90;;;;;;4931784;29;20051;-76
2023/03/23 03:35:55;;;;;;;10.50;7.80;;;12.60;99.90;;;;;;4931757;29;20109;-75
2023/03/23 03:38:21;;;;;;;10.63;7.57;;;12.60;99.90;;;;;;4931782;29;20442;-76
2023/03/23 03:40:47;;;;;;;11.02;8.63;;;12.60;99.90;;;;;;4931567;29;20040;-75
2023/03/23 03:43:13;;;;;;;11.05;8.30;;;12.50;99.90;;;;;;4931520;29;20150;-75
2023/03/23 03:45:41;;;;;;;13.48;8.70;;;12.50;99.90;;;;;;4985931;28;20042;-76
2023/03/23 03:48:08;;;;;;;;;;;12.60;99.90;;;;;;5011801;28;20155;-75
2023/03/23 03:50:34;;;;;;;12.23;8.30;;;12.60;99.90;;;;;;5011114;28;20431;-75
2023/03/23 03:53:00;;;;;;;10.30;8.07;;;12.60;99.90;;;;;;5010871;28;20064;-75
2023/03/23 03:55:48;;;;;;;11.67;8.33;;;12.60;99.90;;;;;;5011118;28;20037;-75
2023/03/23 03:58:16;;;;;;;12.38;9.07;;;12.60;99.90;;;;;;4993075;28;20037;-75
2023/03/23 04:00:42;;;;;;;12.65;9.23;;;12.60;99.90;;;;;;5010541;28;20050;-75
2023/03/23 04:03:09;;;;;;;11.57;9.55;;;12.60;99.90;;;;;;5010614;28;20033;-76
2023/03/23 04:05:36;;;;;;;10.88;8.85;;;12.60;99.90;;;;;;5011128;28;20056;-77
2023/03/23 04:08:03;;;;;;;15.02;9.38;;;12.60;99.90;;;;;;5011855;28;20029;-73
2023/03/23 04:10:30;;;;;;;11.98;9.10;;;12.60;99.90;;;;;;5012320;28;20022;-76
2023/03/23 04:12:57;;;;;;;12.75;8.65;;;12.70;99.90;;;;;;5012170;28;20500;-75
2023/03/23 04:15:46;;;;;;;10.85;8.88;;;12.60;99.90;;;;;;5012292;28;20022;-75
2023/03/23 04:18:14;;;;;;;14.32;9.82;;;12.70;99.90;;;;;;5012069;28;20064;-75
2023/03/23 04:20:44;;;;;;;10.95;8.80;;;12.60;99.90;;;;;;5007692;28;20014;-70
2023/03/23 04:23:10;;;;;;;11.82;8.40;;;12.70;99.90;;;;;;5002707;28;20474;-72
2023/03/23 04:25:36;;;;;;;11.80;9.43;;;12.70;99.90;;;;;;5005004;28;20423;-75
2023/03/23 04:28:02;;;;;;;11.90;8.87;;;12.70;99.90;;;;;;5012355;28;20037;-75
2023/03/23 04:30:30;;;;;;;10.27;8.35;;;12.70;99.90;;;;;;5012014;28;20046;-74
2023/03/23 04:33:16;;;;;;;12.35;8.32;;;12.80;99.90;;;;;;5011594;28;20113;-75
2023/03/23 04:35:45;;;;;;;11.80;8.70;;;12.70;99.90;;;;;;5011255;28;20081;-75
2023/03/23 04:38:13;;;;;;;11.43;8.13;;;12.70;99.90;;;;;;5011918;28;20089;-73
2023/03/23 04:40:41;;;;;;;12.68;8.85;;;12.70;99.90;;;;;;5012003;28;20034;-74
2023/03/23 04:43:07;;;;;;;14.10;8.80;;;12.70;99.90;;;;;;5012507;28;20052;-75
2023/03/23 04:45:37;;;;;;;12.37;9.07;;;12.70;99.90;;;;;;4994589;28;20025;-74
2023/03/23 04:48:06;;;;;;;11.40;8.48;;;12.70;99.90;;;;;;5012415;28;20344;-79
2023/03/23 04:50:34;;;;;;;13.88;9.18;;;12.60;99.90;;;;;;5012089;28;20084;-70
2023/03/23 04:53:05;;;;;;;12.10;8.80;;;12.60;99.90;;;;;;5011872;28;20030;-75
2023/03/23 04:55:36;;;;;;;11.60;9.10;;;12.70;99.90;;;;;;5012575;28;20022;-74
2023/03/23 04:58:09;;;;;;;10.60;8.48;;;12.70;99.90;;;;;;5012388;28;20033;-74
2023/03/23 05:00:37;;;;;;;10.45;8.65;;;12.60;99.90;;;;;;4994270;28;20022;-74
2023/03/23 05:03:03;;;;;;;12.07;8.75;;;12.60;99.90;;;;;;5012137;28;20088;-74
2023/03/23 05:05:30;;;;;;;13.15;9.05;;;12.60;99.90;;;;;;5012572;28;20022;-75
2023/03/23 05:07:56;;;;;;;12.68;8.45;;;12.70;99.90;;;;;;4997401;28;20133;-74
2023/03/23 05:10:49;;;;;;;12.15;8.80;;;12.70;99.90;;;;;;4996887;28;20041;-74
2023/03/23 05:13:15;;;;;;;10.50;8.63;;;12.70;99.90;;;;;;5014907;28;20049;-76
2023/03/23 05:15:41;;;;;;;11.73;9.93;;;12.70;99.90;;;;;;5015717;28;20101;-74
2023/03/23 05:18:09;;;;;;;14.32;9.60;;;12.80;99.90;;;;;;5015696;28;20065;-72
2023/03/23 05:20:35;;;;;;;13.55;10.32;;;13.00;99.90;;;;;;5016385;28;20018;-73
2023/03/23 05:23:01;;;;;;;12.37;9.20;;;13.10;99.90;;;;;;4999233;28;20049;-75
2023/03/23 05:25:27;;;;;;;14.43;8.73;;;13.10;99.90;;;;;;5015792;28;20029;-74
2023/03/23 05:28:00;;;;;;;11.57;9.07;;;13.10;99.90;;;;;;5015702;28;20253;-78
2023/03/23 05:30:28;;;;;;;12.57;8.95;;;13.20;99.90;;;;;;4963521;28;20460;-71
2023/03/23 05:32:55;;;;;;;11.57;8.68;;;13.20;99.90;;;;;;4974970;28;20062;-74
2023/03/23 05:35:21;;;;;;;13.57;8.57;;;13.10;99.90;;;;;;4976755;28;20065;-74
2023/03/23 05:37:47;;;;;;;11.43;8.90;;;13.00;99.90;;;;;;4975903;28;20023;-75
2023/03/23 05:40:15;;;;;;;12.70;9.05;;;13.20;99.90;;;;;;4975435;28;20270;-75
2023/03/23 05:42:41;;;;;;;15.68;8.90;;;13.30;99.90;;;;;;4976737;28;20027;-76
2023/03/23 05:45:10;;;;;;;9.95;8.07;;;13.50;99.90;;;;;;4959113;28;20019;-75
2023/03/23 05:47:40;;;;;;;9.80;8.23;;;13.60;99.90;;;;;;4976373;28;20026;-75
2023/03/23 05:50:12;;;;;;;11.10;8.13;;;13.70;99.90;;;;;;4958493;28;20138;-72
2023/03/23 05:52:39;;;;;;;10.98;7.57;;;13.70;99.90;;;;;;4958154;28;20050;-74
2023/03/23 05:55:08;;;;;;;10.95;8.05;;;13.90;99.90;;;;;;4975790;28;20089;-75
2023/03/23 05:57:38;;;;;;;15.27;7.63;;;14.20;99.90;;;;;;4958590;28;20031;-74
2023/03/23 06:00:14;;;;;;;10.65;7.05;;;14.80;99.90;;;;;;4974430;28;20023;-75
2023/03/23 06:02:43;;;;;;;8.43;6.55;;;15.80;99.90;;;;;;4976029;28;20027;-79
2023/03/23 06:05:10;;;;;;;8.30;6.60;;;17.30;99.90;;;;;;4975722;28;20023;-76
2023/03/23 06:07:37;;;;;;;;;;;18.40;99.90;;;;;;4975721;28;20023;-75
2023/03/23 06:10:08;;;;;;;9.13;6.60;;;17.90;99.90;;;;;;4958203;28;20426;-76
2023/03/23 06:12:35;;;;;;;8.70;6.15;;;17.50;99.90;;;;;;4942572;28;20045;-80
2023/03/23 06:15:03;;;;;;;7.80;6.30;;;17.90;99.90;;;;;;4975590;28;20029;-75
2023/03/23 06:17:29;;;;;;;8.38;6.13;;;18.30;99.90;;;;;;4976096;28;20298;-74
2023/03/23 06:19:56;;;;;;;9.38;5.95;;;18.20;99.90;;;;;;4976164;28;20027;-75
2023/03/23 06:22:22;;;;;;;9.85;6.13;;;18.00;99.90;;;;;;4975669;28;20065;-76
2023/03/23 06:24:48;;;;;;;8.15;6.18;;;17.70;99.90;;;;;;4976513;28;20154;-76
2023/03/23 06:27:16;;;;;;;9.90;6.22;;;17.30;99.90;;;;;;4976217;28;20490;-75
2023/03/23 06:29:42;;;;;;;7.68;6.40;;;16.80;99.90;;;;;;4993433;28;20042;-76
2023/03/23 06:32:12;;;;;;;8.93;6.93;;;16.20;99.90;;;;;;5013966;28;20076;-75
2023/03/23 06:34:43;;;;;;;10.40;7.28;;;15.60;99.90;;;;;;5014744;28;20030;-76
2023/03/23 06:37:10;;;;;;;21.80;7.88;;;15.30;99.90;;;;;;5013566;28;20533;-73
2023/03/23 06:39:38;;;;;;;9.27;6.85;;;15.70;99.90;;;;;;5013444;28;20064;-76
2023/03/23 06:42:17;;;;;;;8.63;6.35;;;15.30;99.90;;;;;;5013634;28;20026;-76
2023/03/23 06:44:45;;;;;;;9.02;7.07;;;15.00;99.90;;;;;;5016100;28;20029;-77
2023/03/23 06:47:14;;;;;;;10.43;7.00;;;15.30;99.90;;;;;;5014301;28;20053;-75
2023/03/23 06:49:40;;;;;;;14.40;6.68;;;15.50;99.90;;;;;;5012306;28;20482;-75
2023/03/23 06:52:09;;;;;;;8.10;6.53;;;15.60;99.90;;;;;;5013511;28;20037;-77
2023/03/23 06:54:35;;;;;;;11.18;6.85;;;15.50;99.90;;;;;;4995740;28;20072;-76
2023/03/23 06:57:01;;;;;;;9.20;6.53;;;15.80;99.90;;;;;;5013272;28;20120;-79
2023/03/23 06:59:29;;;;;;;8.05;6.45;;;16.50;99.90;;;;;;5012983;28;20029;-74
2023/03/23 07:01:56;;;;;;;9.10;6.40;;;17.50;99.90;;;;;;4995029;28;20394;-78
2023/03/23 07:04:23;;;;;;;10.38;6.47;;;17.20;99.90;;;;;;5012990;28;20022;-77
2023/03/23 07:06:52;;;;;;;9.70;6.75;;;17.00;99.90;;;;;;5012494;28;20029;-72
2023/03/23 07:09:19;;;;;;;11.23;6.65;;;16.80;99.90;;;;;;5012423;28;20030;-75
2023/03/23 07:11:47;;;;;;;9.52;6.25;;;16.90;99.90;;;;;;4994674;28;20021;-78
2023/03/23 07:14:17;;;;;;;9.90;5.45;;;18.20;99.90;;;;;;5012285;28;20082;-76
2023/03/23 07:16:53;;;;;;;11.40;6.30;;;18.60;99.90;;;;;;5012210;28;20046;-77
2023/03/23 07:19:19;;;;;;;6.50;5.20;;;18.80;99.90;;;;;;5012982;28;20030;-79
2023/03/23 07:21:46;;;;;;;9.90;4.72;;;19.40;99.90;;;;;;5012765;28;20026;-75
2023/03/23 07:24:13;;;;;;;13.57;5.45;;;21.00;99.90;;;;;;5012736;28;20022;-76
2023/03/23 07:26:44;;;;;;;12.13;5.43;;;22.00;99.90;;;;;;4994921;28;20041;-77
2023/03/23 07:29:11;;;;;;;11.05;5.40;;;21.40;99.90;;;;;;5012222;28;20041;-78
2023/03/23 07:31:36;;;;;;;;;;;21.70;99.90;;;;;;5013280;28;20057;-77
2023/03/23 07:34:04;;;;;;;6.82;4.72;;;21.80;99.90;;;;;;5012510;28;19928;-76
2023/03/23 07:36:30;;;;;;;5.80;4.78;;;21.80;99.90;;;;;;5012608;28;20885;-80
2023/03/23 07:38:56;;;;;;;7.35;4.97;;;22.10;99.90;;;;;;5012342;28;20034;-77
2023/03/23 07:41:23;;;;;;;6.78;5.00;;;22.10;99.90;;;;;;5012310;28;20109;-77
2023/03/23 07:43:49;;;;;;;7.05;4.97;;;21.10;99.90;;;;;;4994695;28;20022;-77
2023/03/23 07:46:15;;;;;;;7.40;5.05;;;21.00;99.90;;;;;;5013016;28;20029;-77
2023/03/23 07:48:43;;;;;;;8.20;4.75;;;21.10;99.90;;;;;;5012423;28;20032;-74
2023/03/23 07:51:09;;;;;;;7.70;5.15;;;20.70;99.90;;;;;;5012467;28;20026;-74
2023/03/23 07:53:37;;;;;;;9.70;5.20;;;20.70;99.90;;;;;;5011857;28;20096;-76
2023/03/23 07:56:03;;;;;;;9.70;5.53;;;20.80;99.90;;;;;;5012093;28;20022;-76
2023/03/23 07:58:30;;;;;;;10.57;5.47;;;20.60;99.90;;;;;;5012385;28;20106;-77
2023/03/23 08:00:57;;;;;;;7.90;5.57;;;20.30;99.90;;;;;;5012031;28;20022;-76
2023/03/23 08:03:24;;;;;;;8.30;5.38;;;20.00;99.90;;;;;;5011579;28;20064;-74
2023/03/23 08:05:52;;;;;;;8.43;5.50;;;19.90;99.90;;;;;;5012880;28;20081;-72
2023/03/23 08:08:18;;;;;;;7.03;5.30;;;19.70;99.90;;;;;;4999497;28;20485;-75
2023/03/23 08:10:45;;;;;;;8.13;5.40;;;19.80;99.90;;;;;;5012435;28;20057;-71
2023/03/23 08:13:11;;;;;;;;;;;19.60;99.90;;;;;;5009416;28;20031;-72
2023/03/23 08:15:40;;;;;;;;;;;19.90;99.90;;;;;;4980270;28;19922;-75
2023/03/23 08:18:07;;;;;;;7.50;5.20;;;19.70;99.90;;;;;;4986902;28;19996;-72
2023/03/23 08:20:35;;;;;;;8.48;5.30;;;20.00;99.90;;;;;;4991080;28;20169;-75
2023/03/23 08:23:02;;;;;;;7.43;4.88;;;19.80;99.90;;;;;;4990944;28;20101;-75
2023/03/23 08:25:30;;;;;;;;;;;20.00;99.90;;;;;;4991768;28;20034;-71
2023/03/23 08:28:01;;;;;;;7.00;5.07;;;19.60;99.90;;;;;;4990772;28;19911;-72
2023/03/23 08:30:29;;;;;;;7.60;5.18;;;19.80;99.90;;;;;;5007116;28;20501;-75
2023/03/23 08:33:00;;;;;;;8.93;5.32;;;20.20;99.90;;;;;;4993852;28;20065;-75
2023/03/23 08:35:29;;;;;;;6.70;5.25;;;19.70;99.90;;;;;;4994509;28;20042;-75
2023/03/23 08:37:57;;;;;;;8.52;5.32;;;19.40;99.90;;;;;;5011846;28;20108;-76
2023/03/23 08:40:26;;;;;;;6.45;4.97;;;19.80;99.90;;;;;;4994204;28;20113;-75
2023/03/23 08:42:54;;;;;;;6.20;4.63;;;20.20;99.90;;;;;;5016213;28;20087;-75
2023/03/23 08:45:22;;;;;;;7.68;4.95;;;19.50;99.90;;;;;;4998075;28;20076;-76
2023/03/23 08:47:56;;;;;;;9.10;4.82;;;19.10;99.90;;;;;;4997797;28;20141;-75
2023/03/23 08:50:28;;;;;;;7.47;5.40;;;19.10;99.90;;;;;;5015809;28;20025;-74
2023/03/23 08:52:54;;;;;;;8.95;5.47;;;19.30;99.90;;;;;;4997699;28;20402;-75
2023/03/23 08:55:22;;;;;;;7.57;6.03;;;19.90;99.90;;;;;;4997708;28;20478;-76
2023/03/23 08:57:48;;;;;;;9.73;6.70;;;20.00;99.90;;;;;;5015464;28;20481;-76
2023/03/23 09:00:17;;;;;;;11.38;5.80;;;19.90;99.90;;;;;;4997748;28;20074;-79
2023/03/23 09:02:47;;;;;;;11.00;5.97;;;20.50;99.90;;;;;;5015468;28;20486;-80
2023/03/23 09:05:16;;;;;;;10.10;5.65;;;19.40;99.90;;;;;;5001721;23;20050;-72
2023/03/23 09:07:48;;;;;;;7.88;5.25;;;19.90;99.90;;;;;;4995341;28;20118;-80
2023/03/23 09:10:17;;;;;;;9.40;5.57;;;20.10;99.90;;;;;;4995594;28;20026;-80
2023/03/23 09:12:45;;;;;;;7.28;5.68;;;19.80;99.90;;;;;;4994117;28;20041;-80
2023/03/23 09:15:14;;;;;;;7.35;5.38;;;20.30;99.90;;;;;;4995655;28;20177;-78
2023/03/23 09:17:44;;;;;;;9.27;5.97;;;20.30;99.90;;;;;;4994070;28;20030;-80
2023/03/23 09:20:13;;;;;;;8.82;5.25;;;20.30;99.90;;;;;;4995138;28;20018;-75
2023/03/23 09:22:42;;;;;;;8.52;5.15;;;20.40;99.90;;;;;;4995562;28;20026;-77
2023/03/23 09:25:10;;;;;;;9.50;5.32;;;20.80;99.90;;;;;;4994982;28;20042;-79
2023/03/23 09:27:38;;;;;;;9.25;5.60;;;21.10;99.90;;;;;;4995436;28;20026;-78
2023/03/23 09:30:18;;;;;;;7.93;5.00;;;21.30;99.90;;;;;;4995689;28;20110;-80
2023/03/23 09:32:48;;;;;;;7.72;5.38;;;21.30;99.90;;;;;;4995392;28;20041;-77
2023/03/23 09:35:21;;;;;;;6.43;4.57;;;21.10;99.90;;;;;;4994119;28;20121;-80
2023/03/23 09:37:50;;;;;;;6.28;5.05;;;20.60;99.90;;;;;;4994023;28;20497;-79
2023/03/23 09:40:21;;;;;;;6.40;4.70;;;20.50;99.90;;;;;;4995688;28;20030;-79
2023/03/23 09:43:11;;;;;;;12.35;4.82;;;20.00;99.90;;;;;;4995557;28;20077;-78
2023/03/23 09:46:00;;;;;;;10.27;5.15;;;20.10;99.90;;;;;;4995744;28;20022;-78
2023/03/23 09:48:42;;;;;;;11.23;5.18;;;19.90;99.90;;;;;;4993891;28;20486;-80
2023/03/23 09:51:32;;;;;;;6.97;4.90;;;20.00;99.90;;;;;;4977422;28;20064;-79
2023/03/23 09:54:11;;;;;;;7.97;5.00;;;20.20;99.90;;;;;;4995320;28;20121;-80
2023/03/23 09:56:39;;;;;;;6.28;4.90;;;20.70;99.90;;;;;;4978059;28;20045;-78
2023/03/23 09:59:19;;;;;;;6.78;5.20;;;20.80;99.90;;;;;;4993021;28;20030;-77
2023/03/23 10:01:54;;;;;;;6.38;5.28;;;20.70;99.90;;;;;;4994487;28;20109;-77
2023/03/23 10:04:52;;;;;;;6.75;4.57;;;20.40;99.90;;;;;;4994078;28;20029;-78
2023/03/23 10:07:26;;;;;;;12.68;6.13;;;19.70;99.90;;;;;;4994140;28;20089;-76
2023/03/23 10:09:55;;;;;;;6.13;4.75;;;19.20;99.90;;;;;;4975287;28;20096;-76
2023/03/23 10:12:28;;;;;;;6.80;4.53;;;19.90;99.90;;;;;;4975064;28;20097;-77
2023/03/23 10:15:16;;;;;;;7.28;4.32;;;20.70;99.90;;;;;;4974657;28;20126;-76
2023/03/23 10:18:00;;;;;;;7.28;4.38;;;21.20;99.90;;;;;;4975454;28;20030;-78
2023/03/23 10:20:41;;;;;;;6.70;4.60;;;21.20;99.90;;;;;;4975197;28;20026;-79
2023/03/23 10:23:20;;;;;;;9.00;4.53;;;21.70;99.90;;;;;;4995993;28;20088;-79
2023/03/23 10:25:56;;;;;;;6.43;4.22;;;21.60;99.90;;;;;;5013659;28;20037;-77
2023/03/23 10:28:36;;;;;;;11.10;4.50;;;22.00;99.90;;;;;;5012285;28;20462;-79
2023/03/23 10:31:05;;;;;;;8.15;4.47;;;22.10;99.90;;;;;;5013808;28;20533;-78
2023/03/23 10:33:42;;;;;;;10.48;4.75;;;22.00;99.90;;;;;;5012140;28;20054;-77
2023/03/23 10:36:34;;;;;;;8.25;4.55;;;22.10;99.90;;;;;;5013595;28;20025;-77
2023/03/23 10:39:14;;;;;;;5.72;3.92;;;22.20;99.90;;;;;;5000382;28;20313;-78
2023/03/23 10:41:45;;;;;;;6.95;4.05;;;22.00;99.90;;;;;;4993823;28;20038;-78
2023/03/23 10:44:21;;;;;;;10.40;4.65;;;21.70;99.90;;;;;;4994756;28;20162;-79
2023/03/23 10:46:57;;;;;;;6.93;4.75;;;21.40;99.90;;;;;;4992638;28;20077;-78
2023/03/23 10:49:43;;;;;;;8.23;5.70;;;21.50;99.90;;;;;;4994427;28;20082;-78
2023/03/23 10:52:26;;;;;;;6.53;4.47;;;21.60;99.90;;;;;;4992602;28;20117;-79
2023/03/23 10:55:07;;;;;;;6.22;4.10;;;21.60;99.90;;;;;;4994123;28;20031;-79
2023/03/23 10:57:35;;;;;;;8.27;3.92;;;22.00;99.90;;;;;;4993920;28;20030;-78
2023/03/23 11:00:13;;;;;;;12.13;5.80;;;22.20;99.90;;;;;;4993864;28;20113;-78
2023/03/23 11:02:47;;;;;;;10.23;4.05;;;22.20;99.90;;;;;;4994109;28;20022;-79
2023/03/23 11:05:26;;;;;;;6.75;4.10;;;22.90;99.90;;;;;;4993149;28;20054;-78
2023/03/23 11:07:57;;;;;;;7.95;3.92;;;22.90;99.90;;;;;;4992575;28;20026;-78
2023/03/23 11:10:47;;;;;;;8.60;4.38;;;22.70;99.90;;;;;;4994142;28;20108;-78
2023/03/23 11:13:17;;;;;;;7.10;3.80;;;22.90;99.90;;;;;;4993808;28;20464;-78
2023/03/23 11:15:46;;;;;;;11.00;4.20;;;23.30;99.90;;;;;;4991115;28;20042;-78
2023/03/23 11:18:36;;;;;;;6.18;3.97;;;23.30;99.90;;;;;;4993006;28;20105;-77
2023/03/23 11:21:06;;;;;;;12.30;4.40;;;23.30;99.90;;;;;;4993918;28;20057;-78
2023/03/23 11:23:43;;;;;;;5.45;3.72;;;23.00;99.90;;;;;;4993922;28;20022;-77
2023/03/23 11:26:27;;;;;;;;;;;23.00;99.90;;;;;;4994487;28;20030;-76
2023/03/23 11:29:06;;;;;;;10.23;3.90;;;22.90;99.90;;;;;;4993900;28;20009;-78
2023/03/23 11:31:38;;;;;;;8.85;4.70;;;23.50;99.90;;;;;;4993526;28;20109;-76
2023/03/23 11:34:35;;;;;;;5.57;3.75;;;23.40;99.90;;;;;;4993061;28;20125;-77
2023/03/23 11:37:03;;;;;;;;;;;23.40;99.90;;;;;;4982188;28;20503;-77
2023/03/23 11:39:45;;;;;;;6.32;3.40;;;23.10;99.90;;;;;;4993281;28;19968;-78
2023/03/23 11:42:43;;;;;;;6.32;3.65;;;23.30;99.90;;;;;;4992053;28;20538;-76
2023/03/23 11:45:31;;;;;;;7.68;4.18;;;23.20;99.90;;;;;;4991837;28;20034;-78
2023/03/23 11:48:12;;;;;;;8.00;4.32;;;23.30;99.90;;;;;;4993860;28;20026;-77
2023/03/23 11:51:11;;;;;;;7.95;4.03;;;23.90;99.90;;;;;;4993550;28;20414;-77
2023/03/23 11:54:13;;;;;;;7.43;3.72;;;23.00;99.90;;;;;;4975600;28;20122;-79
2023/03/23 11:56:46;;;;;;;6.82;3.78;;;23.20;99.90;;;;;;4974427;28;20085;-77
2023/03/23 11:59:33;;;;;;;11.00;3.72;;;23.30;99.90;;;;;;4973997;28;20089;-77
2023/03/23 12:02:04;;;;;;;9.57;3.80;;;23.10;99.90;;;;;;4974216;28;20019;-77
2023/03/23 12:04:54;;;;;;;8.18;3.40;;;23.40;99.90;;;;;;4977954;28;20035;-79
2023/03/23 12:07:57;;;;;;;7.75;3.75;;;23.60;99.90;;;;;;4945523;28;20058;-77
2023/03/23 12:10:33;;;;;;;7.47;4.10;;;23.40;99.90;;;;;;4973833;28;20424;-78
2023/03/23 12:13:17;;;;;;;8.75;3.60;;;23.30;99.90;;;;;;4973345;28;20081;-79
2023/03/23 12:16:05;;;;;;;7.22;4.00;;;23.20;99.90;;;;;;4975900;28;20033;-77
2023/03/23 12:19:03;;;;;;;8.18;4.30;;;23.10;99.90;;;;;;4980299;28;20495;-80
2023/03/23 12:21:59;;;;;;;8.38;3.97;;;22.90;99.90;;;;;;4920076;29;20092;-78
2023/03/23 12:24:34;;;;;;;6.82;4.40;;;22.80;99.90;;;;;;4920241;29;20150;-77
2023/03/23 12:27:25;;;;;;;9.40;4.13;;;22.70;99.90;;;;;;4920538;29;20032;-79
2023/03/23 12:30:10;;;;;;;8.27;5.50;;;22.90;99.90;;;;;;4920435;29;20032;-76
2023/03/23 12:32:57;;;;;;;7.35;4.68;;;23.00;99.90;;;;;;4920379;29;20063;-81
2023/03/23 12:36:03;;;;;;;6.60;4.15;;;23.00;99.90;;;;;;4921230;29;20028;-80
2023/03/23 12:38:46;;;;;;;5.55;3.90;;;22.80;99.90;;;;;;4889656;29;20111;-79
2023/03/23 12:41:17;;;;;;;6.70;3.50;;;23.00;99.90;;;;;;4921084;29;20492;-79
2023/03/23 12:43:58;;;;;;;5.78;3.95;;;23.20;99.90;;;;;;4920858;29;20036;-78
2023/03/23 12:46:55;;;;;;;7.50;3.67;;;23.80;99.90;;;;;;4920897;29;20401;-79
2023/03/23 12:49:44;;;;;;;7.05;4.00;;;23.80;99.90;;;;;;4904349;29;20148;-77
2023/03/23 12:52:22;;;;;;;5.65;3.75;;;23.70;99.90;;;;;;4920621;29;20060;-78
2023/03/23 12:55:07;;;;;;;9.02;3.63;;;23.20;99.90;;;;;;4920301;29;20096;-78
2023/03/23 12:58:07;;;;;;;7.20;3.87;;;23.50;99.90;;;;;;4942394;28;20038;-79
2023/03/23 13:01:00;;;;;;;5.13;3.65;;;23.20;99.90;;;;;;4979671;28;20058;-78
2023/03/23 13:04:05;;;;;;;7.05;3.92;;;22.90;99.90;;;;;;4978320;28;20093;-76
2023/03/23 13:06:45;;;;;;;5.57;4.03;;;22.80;99.90;;;;;;4919891;29;20143;-74
2023/03/23 13:09:38;;;;;;;5.95;4.13;;;22.50;99.90;;;;;;4934066;29;20031;-75
2023/03/23 13:12:08;;;;;;;6.15;4.28;;;22.50;99.90;;;;;;4939789;29;20027;-74
2023/03/23 13:15:26;;;;;;;7.22;3.83;;;22.50;99.90;;;;;;4939394;29;20050;-75
2023/03/23 13:18:03;;;;;;;5.90;4.10;;;22.40;99.90;;;;;;4901296;29;20054;-74